sensor_id;sensor_type;location;lat;lon;timestamp;temperature;humidity
10143;DHT22;5112;54.088;13.446;2022-08-03T00:00:48;19.70;99.90
10143;DHT22;5112;54.088;13.446;2022-08-03T00:10:50;19.50;99.90
10143;DHT22;5112;54.088;13.446;2022-08-03T00:20:53;19.30;99.90
10143;DHT22;5112;54.088;13.446;2022-08-03T00:30:55;19.30;99.90
10143;DHT22;5112;54.088;13.446;2022-08-03T00:40:58;19.30;99.90
10143;DHT22;5112;54.088;13.446;2022-08-03T00:51:00;19.70;99.90
10143;DHT22;5112;54.088;13.446;2022-08-03T01:01:03;19.80;99.90
10143;DHT22;5112;54.088;13.446;2022-08-03T01:11:11;19.80;99.90
10143;DHT22;5112;54.088;13.446;2022-08-03T01:21:26;19.90;99.90
10143;DHT22;5112;54.088;13.446;2022-08-03T01:31:36;19.90;99.90
10143;DHT22;5112;54.088;13.446;2022-08-03T01:41:45;20.10;99.90
10143;DHT22;5112;54.088;13.446;2022-08-03T01:51:50;20.30;99.90
10143;DHT22;5112;54.088;13.446;2022-08-03T02:01:53;20.20;99.90
10143;DHT22;5112;54.088;13.446;2022-08-03T02:11:57;20.00;99.90
10143;DHT22;5112;54.088;13.446;2022-08-03T02:22:01;19.90;99.90
10143;DHT22;5112;54.088;13.446;2022-08-03T02:32:08;19.80;99.90
10143;DHT22;5112;54.088;13.446;2022-08-03T02:42:13;19.80;99.90
10143;DHT22;5112;54.088;13.446;2022-08-03T02:52:18;19.90;99.90
10143;DHT22;5112;54.088;13.446;2022-08-03T03:02:20;20.10;99.90
10143;DHT22;5112;54.088;13.446;2022-08-03T03:12:25;19.90;99.90
10143;DHT22;5112;54.088;13.446;2022-08-03T03:22:29;19.90;99.90
10143;DHT22;5112;54.088;13.446;2022-08-03T03:32:33;20.50;99.90
10143;DHT22;5112;54.088;13.446;2022-08-03T03:42:36;20.80;99.90
10143;DHT22;5112;54.088;13.446;2022-08-03T03:52:40;20.90;99.90
10143;DHT22;5112;54.088;13.446;2022-08-03T04:02:41;21.00;99.90
10143;DHT22;5112;54.088;13.446;2022-08-03T04:12:46;20.90;99.90
10143;DHT22;5112;54.088;13.446;2022-08-03T04:22:50;20.80;99.90
10143;DHT22;5112;54.088;13.446;2022-08-03T04:32:55;20.80;99.90
10143;DHT22;5112;54.088;13.446;2022-08-03T04:42:58;20.80;99.90
10143;DHT22;5112;54.088;13.446;2022-08-03T04:53:02;20.80;99.90
10143;DHT22;5112;54.088;13.446;2022-08-03T05:03:05;21.00;99.90
10143;DHT22;5112;54.088;13.446;2022-08-03T05:13:08;20.80;99.90
10143;DHT22;5112;54.088;13.446;2022-08-03T05:23:12;20.80;99.90
10143;DHT22;5112;54.088;13.446;2022-08-03T05:33:15;21.30;99.90
10143;DHT22;5112;54.088;13.446;2022-08-03T05:43:17;21.70;99.90
10143;DHT22;5112;54.088;13.446;2022-08-03T05:53:20;22.10;99.90
10143;DHT22;5112;54.088;13.446;2022-08-03T06:03:22;22.40;99.90
10143;DHT22;5112;54.088;13.446;2022-08-03T06:13:25;22.50;99.90
10143;DHT22;5112;54.088;13.446;2022-08-03T06:23:26;22.90;99.90
10143;DHT22;5112;54.088;13.446;2022-08-03T06:33:30;23.10;99.90
10143;DHT22;5112;54.088;13.446;2022-08-03T06:43:32;23.70;99.60
10143;DHT22;5112;54.088;13.446;2022-08-03T06:53:36;24.10;98.50
10143;DHT22;5112;54.088;13.446;2022-08-03T07:03:38;24.50;98.40
10143;DHT22;5112;54.088;13.446;2022-08-03T07:13:42;25.10;98.10
10143;DHT22;5112;54.088;13.446;2022-08-03T07:23:43;25.70;96.80
10143;DHT22;5112;54.088;13.446;2022-08-03T07:33:46;26.10;95.00
10143;DHT22;5112;54.088;13.446;2022-08-03T07:43:48;26.50;94.50
10143;DHT22;5112;54.088;13.446;2022-08-03T07:53:51;27.00;93.00
10143;DHT22;5112;54.088;13.446;2022-08-03T08:03:53;27.20;91.90
10143;DHT22;5112;54.088;13.446;2022-08-03T08:13:56;27.80;92.20
10143;DHT22;5112;54.088;13.446;2022-08-03T08:23:58;27.70;91.50
10143;DHT22;5112;54.088;13.446;2022-08-03T08:34:01;28.50;89.80
10143;DHT22;5112;54.088;13.446;2022-08-03T08:44:05;28.80;86.50
10143;DHT22;5112;54.088;13.446;2022-08-03T08:54:09;29.10;87.20
10143;DHT22;5112;54.088;13.446;2022-08-03T09:04:11;29.30;88.00
10143;DHT22;5112;54.088;13.446;2022-08-03T09:14:14;29.80;86.60
10143;DHT22;5112;54.088;13.446;2022-08-03T09:24:20;29.90;84.10
10143;DHT22;5112;54.088;13.446;2022-08-03T09:34:25;29.90;85.70
10143;DHT22;5112;54.088;13.446;2022-08-03T09:44:33;30.10;83.30
10143;DHT22;5112;54.088;13.446;2022-08-03T09:54:37;30.50;82.10
10143;DHT22;5112;54.088;13.446;2022-08-03T10:04:46;30.40;81.30
10143;DHT22;5112;54.088;13.446;2022-08-03T10:14:49;31.00;79.30
10143;DHT22;5112;54.088;13.446;2022-08-03T10:24:59;30.90;79.00
10143;DHT22;5112;54.088;13.446;2022-08-03T10:35:05;31.50;77.30
10143;DHT22;5112;54.088;13.446;2022-08-03T10:45:13;31.10;77.60
10143;DHT22;5112;54.088;13.446;2022-08-03T10:55:30;31.80;75.10
10143;DHT22;5112;54.088;13.446;2022-08-03T11:05:50;31.80;74.40
10143;DHT22;5112;54.088;13.446;2022-08-03T11:15:57;32.00;71.90
10143;DHT22;5112;54.088;13.446;2022-08-03T11:26:12;32.00;73.00
10143;DHT22;5112;54.088;13.446;2022-08-03T11:36:16;32.50;72.70
10143;DHT22;5112;54.088;13.446;2022-08-03T11:46:18;32.80;71.40
10143;DHT22;5112;54.088;13.446;2022-08-03T11:56:22;33.10;69.30
10143;DHT22;5112;54.088;13.446;2022-08-03T12:06:24;33.00;71.70
10143;DHT22;5112;54.088;13.446;2022-08-03T12:16:27;33.30;70.20
10143;DHT22;5112;54.088;13.446;2022-08-03T12:26:41;33.60;68.10
10143;DHT22;5112;54.088;13.446;2022-08-03T12:36:51;33.30;68.70
10143;DHT22;5112;54.088;13.446;2022-08-03T12:46:56;33.40;66.00
10143;DHT22;5112;54.088;13.446;2022-08-03T12:57:01;33.50;66.40
10143;DHT22;5112;54.088;13.446;2022-08-03T13:07:04;33.20;66.80
10143;DHT22;5112;54.088;13.446;2022-08-03T13:17:08;33.80;63.50
10143;DHT22;5112;54.088;13.446;2022-08-03T13:27:10;33.30;66.20
10143;DHT22;5112;54.088;13.446;2022-08-03T13:37:14;32.00;68.90
10143;DHT22;5112;54.088;13.446;2022-08-03T13:47:15;32.30;69.50
10143;DHT22;5112;54.088;13.446;2022-08-03T13:57:19;32.80;69.30
10143;DHT22;5112;54.088;13.446;2022-08-03T14:07:20;33.10;68.10
10143;DHT22;5112;54.088;13.446;2022-08-03T14:17:23;33.20;67.50
10143;DHT22;5112;54.088;13.446;2022-08-03T14:27:25;32.50;68.90
10143;DHT22;5112;54.088;13.446;2022-08-03T14:37:28;33.00;67.40
10143;DHT22;5112;54.088;13.446;2022-08-03T14:47:30;32.80;67.10
10143;DHT22;5112;54.088;13.446;2022-08-03T14:57:34;32.70;67.50
10143;DHT22;5112;54.088;13.446;2022-08-03T15:07:35;32.90;68.00
10143;DHT22;5112;54.088;13.446;2022-08-03T15:17:38;32.50;68.80
10143;DHT22;5112;54.088;13.446;2022-08-03T15:27:40;32.60;68.10
10143;DHT22;5112;54.088;13.446;2022-08-03T15:37:43;32.80;66.50
10143;DHT22;5112;54.088;13.446;2022-08-03T15:47:45;32.50;68.40
10143;DHT22;5112;54.088;13.446;2022-08-03T15:57:48;32.80;67.20
10143;DHT22;5112;54.088;13.446;2022-08-03T16:07:50;32.50;67.80
10143;DHT22;5112;54.088;13.446;2022-08-03T16:17:54;32.70;67.70
10143;DHT22;5112;54.088;13.446;2022-08-03T16:27:56;32.80;66.70
10143;DHT22;5112;54.088;13.446;2022-08-03T16:37:59;32.30;67.80
10143;DHT22;5112;54.088;13.446;2022-08-03T16:48:01;32.00;68.10
10143;DHT22;5112;54.088;13.446;2022-08-03T16:58:04;31.20;74.60
10143;DHT22;5112;54.088;13.446;2022-08-03T17:08:06;30.10;80.00
10143;DHT22;5112;54.088;13.446;2022-08-03T17:18:13;30.00;82.70
10143;DHT22;5112;54.088;13.446;2022-08-03T17:28:17;29.50;87.40
10143;DHT22;5112;54.088;13.446;2022-08-03T17:38:21;28.50;92.20
10143;DHT22;5112;54.088;13.446;2022-08-03T17:48:23;27.50;95.90
10143;DHT22;5112;54.088;13.446;2022-08-03T17:58:41;27.10;97.50
10143;DHT22;5112;54.088;13.446;2022-08-03T18:08:49;26.80;98.00
10143;DHT22;5112;54.088;13.446;2022-08-03T18:18:53;26.80;98.80
10143;DHT22;5112;54.088;13.446;2022-08-03T18:28:57;26.50;99.50
10143;DHT22;5112;54.088;13.446;2022-08-03T18:39:00;26.40;99.90
10143;DHT22;5112;54.088;13.446;2022-08-03T18:49:08;26.20;99.90
10143;DHT22;5112;54.088;13.446;2022-08-03T18:59:15;26.00;99.90
10143;DHT22;5112;54.088;13.446;2022-08-03T19:09:24;25.70;99.90
10143;DHT22;5112;54.088;13.446;2022-08-03T19:19:29;25.40;99.90
10143;DHT22;5112;54.088;13.446;2022-08-03T19:29:32;25.00;99.90
10143;DHT22;5112;54.088;13.446;2022-08-03T19:39:36;24.80;99.90
10143;DHT22;5112;54.088;13.446;2022-08-03T19:49:39;24.60;99.90
10143;DHT22;5112;54.088;13.446;2022-08-03T19:59:43;24.40;99.90
10143;DHT22;5112;54.088;13.446;2022-08-03T20:09:45;24.20;99.90
10143;DHT22;5112;54.088;13.446;2022-08-03T20:19:51;24.00;99.90
10143;DHT22;5112;54.088;13.446;2022-08-03T20:29:53;23.80;99.90
10143;DHT22;5112;54.088;13.446;2022-08-03T20:39:56;23.70;99.90
10143;DHT22;5112;54.088;13.446;2022-08-03T20:49:58;23.50;99.90
10143;DHT22;5112;54.088;13.446;2022-08-03T21:00:03;23.30;99.90
10143;DHT22;5112;54.088;13.446;2022-08-03T21:10:12;23.00;99.90
10143;DHT22;5112;54.088;13.446;2022-08-03T21:20:15;22.80;99.90
10143;DHT22;5112;54.088;13.446;2022-08-03T21:30:19;22.60;99.90
10143;DHT22;5112;54.088;13.446;2022-08-03T21:40:22;22.50;99.90
10143;DHT22;5112;54.088;13.446;2022-08-03T21:50:24;22.30;99.90
10143;DHT22;5112;54.088;13.446;2022-08-03T22:00:27;22.10;99.90
10143;DHT22;5112;54.088;13.446;2022-08-03T22:10:29;22.10;99.90
10143;DHT22;5112;54.088;13.446;2022-08-03T22:20:32;21.90;99.90
10143;DHT22;5112;54.088;13.446;2022-08-03T22:30:34;21.80;99.90
10143;DHT22;5112;54.088;13.446;2022-08-03T22:40:38;21.50;99.90
10143;DHT22;5112;54.088;13.446;2022-08-03T22:50:42;21.40;99.90
10143;DHT22;5112;54.088;13.446;2022-08-03T23:00:50;21.30;99.90
10143;DHT22;5112;54.088;13.446;2022-08-03T23:10:55;21.20;99.90
10143;DHT22;5112;54.088;13.446;2022-08-03T23:21:04;21.00;99.90
10143;DHT22;5112;54.088;13.446;2022-08-03T23:31:06;21.10;99.90
10143;DHT22;5112;54.088;13.446;2022-08-03T23:41:11;20.90;99.90
10143;DHT22;5112;54.088;13.446;2022-08-03T23:51:25;20.90;99.90
